Monroe, Michigan
Current Conditions -  °F | °C
As of 4:15 PM on Tuesday 25 Nov 2014 (Local Time) from KTTF Reporting Station
Overcast Overcast  
Wind Chill: 19°   Ceiling: 2500
Heat Index: 30°   Visibility: 10mi
Dew Point: 25°   Wind: 15mph
Humidity: 80%   Direction: 260°W
Pressure: 30.11"   Gusts: 18mph
Location:  41.92°N, 83.4°W
Report Text: KTTF 252115Z AUTO 26013G16KT 10SM BKN025 OVC034 M01/M04 A3011 RMK AO2
Loading
Personal Weather Stations






























Interactive Weather Map New forecast layout! Learn more

10-Day Weather Forecast

Advertisements
Track Severe Weather on mobile